Terminal Aerodrome Forecast
Issued by NWS

Home | Current Version | Previous Version | Graphics & Text | Print | Product List | Glossary On
Versions: 1 2 3 4 5 6 7 8 9 10 11 12 13 14 15 16 17 18 19 20 21 22 23 24 25 26 27 28
000
FTUS45 KGGW 211127
TAFGDV
TAF
KGDV 211127Z 2112/2212 29007KT P6SM BKN090
     FM211900 32013G21KT P6SM BKN090
     FM220100 32013KT P6SM VCSH BKN100
     FM221000 31009KT P6SM BKN060=

USA.gov is the U.S. government's official web portal to all federal, state and local government web resources and services.